Time;durP1;ratioP1;P1;durP2;ratioP2;P2;SDS_P1;SDS_P2;PMS_P1;PMS_P2;Temp;Humidity;BMP_temperature;BMP_pressure;BME280_temperature;BME280_humidity;BME280_pressure;Samples;Min_cycle;Max_cycle;Signal;HPM_P1;HPM_P2
2021/12/02 00:01:10;;;;;;;0.30;0.30;;;5.40;99.90;;;;;;5053724;28;20211;-77
2021/12/02 00:03:36;;;;;;;0.30;0.20;;;5.50;99.90;;;;;;5053958;28;20663;-76
2021/12/02 00:06:06;;;;;;;0.57;0.30;;;5.40;99.90;;;;;;5053782;28;20264;-76
2021/12/02 00:08:31;;;;;;;0.73;0.30;;;5.40;99.90;;;;;;5053951;28;20172;-76
2021/12/02 00:10:57;;;;;;;0.93;0.30;;;5.30;99.90;;;;;;5053649;28;20210;-76
2021/12/02 00:13:25;;;;;;;0.73;0.20;;;5.40;99.90;;;;;;5053674;28;20175;-76
2021/12/02 00:15:56;;;;;;;0.10;0.10;;;5.30;99.90;;;;;;5053564;28;20174;-76
2021/12/02 00:21:06;;;;;;;1.07;0.20;;;5.30;99.90;;;;;;5053759;28;20199;-76
2021/12/02 00:23:36;;;;;;;0.53;0.23;;;5.30;99.90;;;;;;5053561;28;20179;-76
2021/12/02 00:26:08;;;;;;;1.13;0.40;;;5.30;99.90;;;;;;5052210;28;20171;-76
2021/12/02 00:28:37;;;;;;;0.30;0.20;;;5.20;99.90;;;;;;5053339;28;20171;-76
2021/12/02 00:31:03;;;;;;;0.70;0.20;;;5.20;99.90;;;;;;5053321;28;20215;-76
2021/12/02 00:33:31;;;;;;;0.50;0.20;;;5.20;99.90;;;;;;5053351;28;20180;-76
2021/12/02 00:35:57;;;;;;;0.57;0.20;;;5.10;99.90;;;;;;5043292;28;20661;-76
2021/12/02 00:38:24;;;;;;;0.40;0.10;;;5.10;99.90;;;;;;5053314;28;20210;-76
2021/12/02 00:40:51;;;;;;;0.27;0.20;;;5.10;99.90;;;;;;5051928;28;20576;-76
2021/12/02 00:43:17;;;;;;;1.70;0.37;;;5.20;99.90;;;;;;5051993;28;20582;-76
2021/12/02 00:45:44;;;;;;;0.20;0.20;;;5.10;99.90;;;;;;5053208;28;20175;-76
2021/12/02 00:48:11;;;;;;;0.63;0.20;;;5.10;99.90;;;;;;5051826;28;20213;-76
2021/12/02 00:50:39;;;;;;;1.17;0.30;;;5.10;99.90;;;;;;5052904;28;20212;-77
2021/12/02 00:53:07;;;;;;;0.30;0.30;;;5.10;99.90;;;;;;5051711;28;20304;-76
2021/12/02 00:55:36;;;;;;;0.60;0.40;;;5.20;99.90;;;;;;5044752;28;20207;-76
2021/12/02 00:58:02;;;;;;;0.33;0.30;;;5.10;99.90;;;;;;5040035;28;20211;-76
2021/12/02 01:00:28;;;;;;;0.60;0.33;;;5.10;99.90;;;;;;5052909;28;20197;-76
2021/12/02 01:02:57;;;;;;;0.73;0.23;;;5.10;99.90;;;;;;5053286;28;20177;-77
2021/12/02 01:05:23;;;;;;;0.50;0.33;;;5.10;99.90;;;;;;5052996;28;20187;-76
2021/12/02 01:07:49;;;;;;;0.50;0.33;;;5.10;99.90;;;;;;5051589;28;20253;-76
2021/12/02 01:10:15;;;;;;;1.27;0.60;;;5.10;99.90;;;;;;5051562;28;20206;-76
2021/12/02 01:12:40;;;;;;;1.13;0.50;;;5.10;99.90;;;;;;5052956;28;20179;-76
2021/12/02 01:15:07;;;;;;;1.03;0.50;;;5.10;99.90;;;;;;5052864;28;20332;-75
2021/12/02 01:17:33;;;;;;;0.67;0.40;;;5.00;99.90;;;;;;5053143;28;20291;-76
2021/12/02 01:19:59;;;;;;;1.90;0.70;;;5.10;99.90;;;;;;5051239;28;20226;-76
2021/12/02 01:22:26;;;;;;;1.60;0.57;;;5.10;99.90;;;;;;5052832;28;20190;-76
2021/12/02 01:24:53;;;;;;;1.13;0.50;;;5.10;99.90;;;;;;5052879;28;20182;-76
2021/12/02 01:27:21;;;;;;;0.50;0.40;;;5.00;99.90;;;;;;5052652;28;20218;-76
2021/12/02 01:29:51;;;;;;;1.60;0.70;;;5.10;99.90;;;;;;5052494;28;20213;-76
2021/12/02 01:32:17;;;;;;;1.33;0.60;;;5.10;99.90;;;;;;5053060;28;20235;-76
2021/12/02 01:34:46;;;;;;;2.23;0.80;;;5.00;99.90;;;;;;5043400;28;20175;-76
2021/12/02 01:37:14;;;;;;;1.13;0.80;;;5.10;99.90;;;;;;5052639;28;20595;-76
2021/12/02 01:39:40;;;;;;;2.27;0.60;;;5.10;99.90;;;;;;5052702;28;20324;-76
2021/12/02 01:42:22;;;;;;;0.50;0.50;;;5.10;99.90;;;;;;5051296;28;20533;-76
2021/12/02 01:44:50;;;;;;;0.70;0.50;;;5.10;99.90;;;;;;5051419;28;20185;-76
2021/12/02 01:47:19;;;;;;;0.67;0.63;;;5.10;99.90;;;;;;5051142;28;20652;-77
2021/12/02 01:49:50;;;;;;;3.10;0.60;;;5.10;99.90;;;;;;5052527;28;20189;-76
2021/12/02 01:52:24;;;;;;;1.23;0.70;;;5.10;99.90;;;;;;5052579;28;20183;-76
2021/12/02 01:55:02;;;;;;;1.23;0.60;;;5.10;99.90;;;;;;5051257;28;20706;-76
2021/12/02 01:57:32;;;;;;;2.23;0.60;;;5.10;99.90;;;;;;5051292;28;20191;-76
2021/12/02 02:00:15;;;;;;;1.03;0.60;;;5.10;99.90;;;;;;5051113;28;20291;-77
2021/12/02 02:02:41;;;;;;;0.40;0.40;;;5.10;99.90;;;;;;5052440;28;20220;-77
2021/12/02 02:05:13;;;;;;;0.93;0.50;;;5.10;99.90;;;;;;5046599;28;20196;-76
2021/12/02 02:07:54;;;;;;;0.60;0.53;;;5.10;99.90;;;;;;5048048;28;20241;-76
2021/12/02 02:10:19;;;;;;;0.70;0.50;;;5.10;99.90;;;;;;5034532;28;20643;-76
2021/12/02 02:12:46;;;;;;;0.83;0.60;;;5.10;99.90;;;;;;5035567;28;20173;-77
2021/12/02 02:15:12;;;;;;;1.07;0.57;;;5.20;99.90;;;;;;5052572;28;20183;-77
2021/12/02 02:17:50;;;;;;;1.80;0.50;;;5.20;99.90;;;;;;5053812;28;20302;-77
2021/12/02 02:20:16;;;;;;;1.80;0.80;;;5.10;99.90;;;;;;5053678;28;20199;-77
2021/12/02 02:22:41;;;;;;;1.43;0.93;;;5.10;99.90;;;;;;5052461;28;20706;-77
2021/12/02 02:25:13;;;;;;;1.73;1.00;;;5.10;99.90;;;;;;5048372;28;20665;-76
2021/12/02 02:27:39;;;;;;;1.47;0.80;;;5.10;99.90;;;;;;5034331;28;20260;-77
2021/12/02 02:30:08;;;;;;;1.27;0.97;;;5.10;99.90;;;;;;5038673;28;20698;-76
2021/12/02 02:32:34;;;;;;;1.40;0.90;;;5.10;99.90;;;;;;5036025;28;20660;-76
2021/12/02 02:37:34;;;;;;;1.73;0.57;;;5.10;99.90;;;;;;5049006;23;20710;-78
2021/12/02 02:40:04;;;;;;;1.43;0.60;;;5.20;99.90;;;;;;5018076;28;20564;-79
2021/12/02 02:42:30;;;;;;;2.50;0.50;;;5.00;99.90;;;;;;5017996;28;20173;-78
2021/12/02 02:44:56;;;;;;;0.70;0.50;;;5.10;99.90;;;;;;5029768;28;20255;-78
2021/12/02 02:47:25;;;;;;;2.50;0.60;;;5.10;99.90;;;;;;5019291;28;20201;-79
2021/12/02 02:49:51;;;;;;;1.23;0.73;;;5.00;99.90;;;;;;5017585;28;20280;-78
2021/12/02 02:52:16;;;;;;;1.47;0.70;;;5.00;99.90;;;;;;5016740;28;20260;-78
2021/12/02 02:54:42;;;;;;;1.23;0.70;;;5.00;99.90;;;;;;5014183;28;20247;-79
2021/12/02 02:57:11;;;;;;;2.17;0.93;;;5.00;99.90;;;;;;5027125;28;20340;-79
2021/12/02 03:08:15;;;;;;;0.97;0.70;;;5.00;99.90;;;;;;4996210;28;20273;-78
2021/12/02 03:13:36;;;;;;;1.53;0.63;;;4.90;99.90;;;;;;5017162;28;20159;-79
2021/12/02 03:18:40;;;;;;;1.17;0.63;;;4.90;99.90;;;;;;5017839;28;20196;-79
2021/12/02 03:21:19;;;;;;;2.10;0.67;;;4.90;99.90;;;;;;5017449;28;20178;-79
2021/12/02 03:24:00;;;;;;;2.10;0.40;;;4.70;99.90;;;;;;5016422;28;20177;-78
2021/12/02 03:26:27;;;;;;;2.83;0.90;;;4.70;99.90;;;;;;5016948;28;20204;-78
2021/12/02 03:28:54;;;;;;;2.03;0.50;;;4.70;99.90;;;;;;5017457;28;20173;-78
2021/12/02 03:31:21;;;;;;;2.90;0.60;;;4.80;99.90;;;;;;5017402;28;20182;-78
2021/12/02 03:33:47;;;;;;;1.13;0.70;;;4.70;99.90;;;;;;5016339;28;20184;-78
2021/12/02 03:36:15;;;;;;;1.23;0.50;;;4.70;99.90;;;;;;5016940;28;20209;-78
2021/12/02 03:38:41;;;;;;;1.67;0.50;;;4.70;99.90;;;;;;5017469;28;20670;-78
2021/12/02 03:41:06;;;;;;;0.70;0.50;;;4.60;99.90;;;;;;5015805;28;20177;-78
2021/12/02 03:43:41;;;;;;;1.77;0.53;;;4.70;99.90;;;;;;5015749;28;20223;-78
2021/12/02 03:46:09;;;;;;;1.27;0.47;;;4.70;99.90;;;;;;5017518;28;20204;-78
2021/12/02 03:48:36;;;;;;;1.83;0.67;;;4.70;99.90;;;;;;5016808;28;20565;-78
2021/12/02 03:51:03;;;;;;;1.53;0.60;;;4.60;99.90;;;;;;5016859;28;20570;-78
2021/12/02 03:53:28;;;;;;;2.47;0.57;;;4.60;99.90;;;;;;5017027;28;20169;-78
2021/12/02 03:55:54;;;;;;;0.90;0.40;;;4.60;99.90;;;;;;5016809;28;20552;-78
2021/12/02 03:58:20;;;;;;;0.50;0.50;;;4.50;99.90;;;;;;5016855;28;20187;-79
2021/12/02 04:00:45;;;;;;;1.80;0.70;;;4.40;99.90;;;;;;5015294;28;20177;-78
2021/12/02 04:03:11;;;;;;;1.47;0.50;;;4.40;99.90;;;;;;5016370;28;20545;-78
2021/12/02 04:05:37;;;;;;;0.77;0.50;;;4.40;99.90;;;;;;5016516;28;20291;-78
2021/12/02 04:08:02;;;;;;;1.27;0.50;;;4.40;99.90;;;;;;5021103;28;20239;-78
2021/12/02 04:10:28;;;;;;;0.70;0.50;;;4.30;99.90;;;;;;5015679;28;20195;-78
2021/12/02 04:16:09;;;;;;;1.60;0.60;;;4.50;99.90;;;;;;5015982;28;20171;-78
2021/12/02 04:18:08;;;;;;;0.73;0.50;;;4.60;99.90;;;;;;5014144;28;20203;-78
2021/12/02 04:20:36;;;;;;;1.03;0.67;;;4.40;99.90;;;;;;5016153;28;20267;-78
2021/12/02 04:23:02;;;;;;;3.57;0.70;;;4.50;99.90;;;;;;5016165;28;20176;-78
2021/12/02 04:25:28;;;;;;;2.63;0.80;;;4.30;99.90;;;;;;5015395;28;20203;-78
2021/12/02 04:27:54;;;;;;;1.00;0.70;;;4.30;99.90;;;;;;5014713;28;20566;-78
2021/12/02 04:30:23;;;;;;;2.37;0.80;;;4.30;99.90;;;;;;5015746;28;20176;-78
2021/12/02 04:32:49;;;;;;;3.03;0.80;;;4.30;99.90;;;;;;5015721;28;20208;-79
2021/12/02 04:35:14;;;;;;;1.03;0.70;;;4.40;99.90;;;;;;5015391;28;20171;-78
2021/12/02 04:37:43;;;;;;;2.87;1.27;;;4.40;99.90;;;;;;5015603;28;20629;-78
2021/12/02 04:40:11;;;;;;;2.70;0.70;;;4.40;99.90;;;;;;5015350;28;20585;-78
2021/12/02 04:42:37;;;;;;;3.00;1.20;;;4.40;99.90;;;;;;5015787;28;20172;-78
2021/12/02 04:45:03;;;;;;;1.47;0.90;;;4.30;99.90;;;;;;5014298;28;20182;-78
2021/12/02 04:47:29;;;;;;;1.60;0.80;;;4.30;99.90;;;;;;5015793;28;20538;-79
2021/12/02 04:49:55;;;;;;;2.03;0.90;;;4.30;99.90;;;;;;5014210;28;20173;-79
2021/12/02 04:52:21;;;;;;;2.23;0.93;;;4.40;99.90;;;;;;5015785;28;20176;-78
2021/12/02 04:54:46;;;;;;;3.03;0.80;;;4.30;99.90;;;;;;5014990;28;20661;-78
2021/12/02 04:57:12;;;;;;;2.63;0.80;;;4.30;99.90;;;;;;5015207;28;20232;-78
2021/12/02 04:59:38;;;;;;;1.60;0.87;;;4.30;99.90;;;;;;5015255;28;20175;-78
2021/12/02 05:02:03;;;;;;;3.13;1.03;;;4.30;99.90;;;;;;5012046;28;20173;-78
2021/12/02 05:04:29;;;;;;;1.37;0.70;;;4.20;99.90;;;;;;5016123;28;20259;-78
2021/12/02 05:06:55;;;;;;;2.70;1.03;;;4.20;99.90;;;;;;5012655;28;20211;-78
2021/12/02 05:09:21;;;;;;;1.17;0.90;;;4.20;99.90;;;;;;5014661;28;20184;-79
2021/12/02 05:11:46;;;;;;;4.00;0.80;;;4.30;99.90;;;;;;5014670;28;20175;-79
2021/12/02 05:14:12;;;;;;;1.20;0.70;;;4.30;99.90;;;;;;5014416;28;20653;-79
2021/12/02 05:16:39;;;;;;;2.13;1.00;;;4.30;99.90;;;;;;5015433;28;20203;-78
2021/12/02 05:19:05;;;;;;;1.67;0.63;;;4.20;99.90;;;;;;5015850;28;20206;-78
2021/12/02 05:21:30;;;;;;;2.00;0.60;;;4.30;99.90;;;;;;5015622;28;20185;-78
2021/12/02 05:23:56;;;;;;;5.80;0.90;;;4.30;99.90;;;;;;5015517;28;20258;-78
2021/12/02 05:26:23;;;;;;;3.73;1.10;;;4.30;99.90;;;;;;5013998;28;20208;-78
2021/12/02 05:28:50;;;;;;;2.93;0.70;;;4.30;99.90;;;;;;5013483;28;20201;-78
2021/12/02 05:31:16;;;;;;;2.90;0.80;;;4.20;99.90;;;;;;5013647;28;20206;-79
2021/12/02 05:33:42;;;;;;;1.60;0.70;;;4.20;99.90;;;;;;5014645;28;20583;-78
2021/12/02 05:36:08;;;;;;;1.80;0.70;;;4.20;99.90;;;;;;5014231;28;20212;-79
2021/12/02 05:38:34;;;;;;;1.90;0.83;;;4.20;99.90;;;;;;5015183;28;20179;-79
2021/12/02 05:41:00;;;;;;;0.83;0.60;;;4.10;99.90;;;;;;5016215;28;20192;-79
2021/12/02 05:43:26;;;;;;;3.33;0.80;;;4.10;99.90;;;;;;5019570;28;20177;-79
2021/12/02 05:45:52;;;;;;;1.57;0.80;;;4.10;99.90;;;;;;5020988;28;20569;-78
2021/12/02 05:48:17;;;;;;;2.70;1.03;;;4.20;99.90;;;;;;5016154;28;20658;-79
2021/12/02 05:50:43;;;;;;;2.03;1.17;;;4.10;99.90;;;;;;5017309;28;20632;-78
2021/12/02 05:53:09;;;;;;;2.67;1.20;;;4.20;99.90;;;;;;5018225;28;20659;-78
2021/12/02 05:55:34;;;;;;;4.47;1.30;;;4.10;99.90;;;;;;5019549;28;20259;-79
2021/12/02 05:58:00;;;;;;;2.07;1.20;;;4.10;99.90;;;;;;5008817;28;20189;-78
2021/12/02 06:00:26;;;;;;;3.00;0.97;;;4.00;99.90;;;;;;5019206;28;20549;-78
2021/12/02 06:02:52;;;;;;;3.03;1.10;;;4.10;99.90;;;;;;5018182;28;20210;-78
2021/12/02 06:05:20;;;;;;;2.73;1.10;;;3.90;99.90;;;;;;5018068;28;20176;-79
2021/12/02 06:07:50;;;;;;;2.40;0.90;;;4.00;99.90;;;;;;5017336;28;20222;-79
2021/12/02 06:10:17;;;;;;;4.37;1.37;;;4.00;99.90;;;;;;5018106;28;20206;-78
2021/12/02 06:12:43;;;;;;;4.43;1.83;;;4.00;99.90;;;;;;5018548;28;20189;-79
2021/12/02 06:15:09;;;;;;;3.07;1.40;;;4.00;99.90;;;;;;5018243;28;20674;-79
2021/12/02 06:17:38;;;;;;;4.67;1.60;;;4.00;99.90;;;;;;5017597;28;20177;-79
2021/12/02 06:20:05;;;;;;;3.97;1.53;;;4.00;99.90;;;;;;5016128;28;20182;-77
2021/12/02 06:22:31;;;;;;;2.50;1.10;;;3.90;99.90;;;;;;5015724;28;20219;-77
2021/12/02 06:25:43;;;;;;;4.87;2.53;;;3.90;99.90;;;;;;5015579;28;20619;-77
2021/12/02 06:27:53;;;;;;;7.17;3.43;;;4.00;99.90;;;;;;5014508;28;20740;-77
2021/12/02 06:30:22;;;;;;;7.67;2.50;;;4.00;99.90;;;;;;5006715;28;20178;-77
2021/12/02 06:32:49;;;;;;;5.47;1.70;;;4.00;99.90;;;;;;5011375;28;20173;-78
2021/12/02 06:35:15;;;;;;;5.57;2.03;;;3.90;99.90;;;;;;5011231;28;20530;-77
2021/12/02 06:37:41;;;;;;;3.83;1.83;;;3.90;99.90;;;;;;5009560;28;20189;-77
2021/12/02 06:40:08;;;;;;;3.97;1.10;;;3.90;99.90;;;;;;5016257;28;20208;-77
2021/12/02 06:42:34;;;;;;;3.37;1.13;;;3.90;99.90;;;;;;5017097;28;20167;-77
2021/12/02 06:45:00;;;;;;;2.60;0.90;;;3.90;99.90;;;;;;5015668;28;20643;-77
2021/12/02 06:47:31;;;;;;;1.23;1.07;;;3.90;99.90;;;;;;5015997;28;20659;-77
2021/12/02 06:50:00;;;;;;;3.63;1.27;;;3.90;99.90;;;;;;5016795;28;20178;-77
2021/12/02 06:52:27;;;;;;;2.20;1.10;;;3.90;99.90;;;;;;5016575;28;20180;-77
2021/12/02 06:54:55;;;;;;;1.33;0.57;;;3.90;99.90;;;;;;5014934;28;20185;-77
2021/12/02 06:57:22;;;;;;;2.80;1.47;;;4.00;99.90;;;;;;5015507;28;20216;-76
2021/12/02 06:59:47;;;;;;;2.43;1.10;;;4.10;99.90;;;;;;5014886;28;20188;-77
2021/12/02 07:02:13;;;;;;;1.93;0.80;;;4.00;99.90;;;;;;5016047;28;20182;-77
2021/12/02 07:04:39;;;;;;;3.20;1.20;;;4.00;99.90;;;;;;5015403;28;20184;-77
2021/12/02 07:07:05;;;;;;;2.23;0.77;;;4.00;99.90;;;;;;5015900;28;20666;-77
2021/12/02 07:09:31;;;;;;;3.50;1.00;;;4.10;99.90;;;;;;5015316;28;20188;-77
2021/12/02 07:11:56;;;;;;;2.77;0.70;;;4.10;99.90;;;;;;5018182;28;20550;-77
2021/12/02 07:14:24;;;;;;;2.10;0.60;;;4.00;99.90;;;;;;5014816;28;20176;-77
2021/12/02 07:16:50;;;;;;;3.40;0.70;;;4.00;99.90;;;;;;5012041;28;20636;-77
2021/12/02 07:19:15;;;;;;;3.83;0.93;;;4.00;99.90;;;;;;5017027;28;20183;-77
2021/12/02 07:21:41;;;;;;;1.93;0.83;;;4.00;99.90;;;;;;5009758;28;20185;-77
2021/12/02 07:24:10;;;;;;;2.27;0.93;;;4.00;99.90;;;;;;5013492;28;20644;-77
2021/12/02 07:26:41;;;;;;;1.77;1.20;;;4.50;99.90;;;;;;5011137;28;20243;-77
2021/12/02 07:29:11;;;;;;;2.73;0.90;;;3.90;99.90;;;;;;5012815;28;20190;-77
2021/12/02 07:31:38;;;;;;;2.00;0.90;;;3.90;99.90;;;;;;5011103;28;20589;-76
2021/12/02 07:34:05;;;;;;;2.07;0.80;;;4.00;99.90;;;;;;5014004;28;20192;-75
2021/12/02 07:36:32;;;;;;;3.43;0.90;;;4.10;99.90;;;;;;5014517;28;20216;-77
2021/12/02 07:39:01;;;;;;;5.07;1.00;;;3.90;99.90;;;;;;5013247;28;20266;-76
2021/12/02 07:41:27;;;;;;;4.40;1.27;;;4.00;99.90;;;;;;5014669;28;20180;-77
2021/12/02 07:43:53;;;;;;;2.13;1.00;;;4.00;99.90;;;;;;5014204;28;20172;-76
2021/12/02 07:46:18;;;;;;;1.70;0.93;;;4.00;99.90;;;;;;5007893;28;20204;-77
2021/12/02 07:48:44;;;;;;;2.50;0.90;;;4.00;99.90;;;;;;5013051;28;20200;-77
2021/12/02 07:51:12;;;;;;;1.80;0.70;;;4.00;99.90;;;;;;5014568;28;20218;-77
2021/12/02 07:53:43;;;;;;;2.07;1.27;;;4.00;99.90;;;;;;5016197;28;20176;-78
2021/12/02 07:56:12;;;;;;;4.27;2.13;;;4.00;99.90;;;;;;5016387;28;20278;-78
2021/12/02 07:58:45;;;;;;;4.07;1.77;;;4.00;99.90;;;;;;5014769;28;20180;-78
2021/12/02 08:01:13;;;;;;;3.70;1.23;;;4.00;99.90;;;;;;5015544;28;20195;-78
2021/12/02 08:03:47;;;;;;;4.93;1.20;;;4.10;99.90;;;;;;5012410;28;20181;-78
2021/12/02 08:06:16;;;;;;;2.80;1.07;;;4.00;99.90;;;;;;5012469;28;20250;-77
2021/12/02 08:08:44;;;;;;;2.50;1.20;;;4.00;99.90;;;;;;5013744;28;20192;-77
2021/12/02 08:11:10;;;;;;;1.40;0.97;;;4.10;99.90;;;;;;5013147;28;20541;-77
2021/12/02 08:13:37;;;;;;;2.83;1.40;;;4.10;99.90;;;;;;5010312;28;20180;-75
2021/12/02 08:16:05;;;;;;;1.90;1.10;;;4.20;99.90;;;;;;5007598;28;20250;-77
2021/12/02 08:18:31;;;;;;;2.33;0.90;;;4.20;99.90;;;;;;5007673;28;20622;-74
2021/12/02 08:20:58;;;;;;;2.90;1.00;;;4.20;99.90;;;;;;5006527;28;20182;-75
2021/12/02 08:23:24;;;;;;;1.90;0.90;;;4.30;99.90;;;;;;5012937;28;20628;-75
2021/12/02 08:25:50;;;;;;;1.40;0.90;;;4.30;99.90;;;;;;5012996;28;20200;-75
2021/12/02 08:28:16;;;;;;;3.73;1.17;;;4.30;99.90;;;;;;5012759;28;20186;-75
2021/12/02 08:30:42;;;;;;;2.23;1.20;;;4.30;99.90;;;;;;5009289;28;20167;-75
2021/12/02 08:33:09;;;;;;;3.30;1.20;;;4.30;99.90;;;;;;5011846;28;20203;-76
2021/12/02 08:35:35;;;;;;;2.27;0.93;;;4.50;99.90;;;;;;5011338;28;20221;-75
2021/12/02 08:38:10;;;;;;;4.63;1.20;;;4.50;99.90;;;;;;5011004;28;20180;-75
2021/12/02 08:40:38;;;;;;;3.50;1.87;;;4.50;99.90;;;;;;4989948;28;20235;-74
2021/12/02 08:43:06;;;;;;;3.13;1.67;;;4.70;99.90;;;;;;5012827;28;20215;-74
2021/12/02 08:45:33;;;;;;;3.30;0.97;;;4.60;99.90;;;;;;5006335;28;20200;-74
2021/12/02 08:48:00;;;;;;;1.93;1.10;;;4.70;99.90;;;;;;5012490;28;20209;-77
2021/12/02 08:50:27;;;;;;;2.07;1.27;;;4.80;99.90;;;;;;5011429;28;20170;-76
2021/12/02 08:52:53;;;;;;;3.30;1.23;;;4.90;99.90;;;;;;5013158;28;20166;-75
2021/12/02 08:55:21;;;;;;;3.07;1.20;;;4.90;99.90;;;;;;5012903;28;20627;-76
2021/12/02 08:57:48;;;;;;;3.77;1.40;;;4.90;99.90;;;;;;5011002;28;20177;-77
2021/12/02 09:00:17;;;;;;;3.40;1.60;;;4.90;99.90;;;;;;5001989;28;20184;-74
2021/12/02 09:02:43;;;;;;;6.93;1.60;;;5.00;99.90;;;;;;5008922;28;20173;-74
2021/12/02 09:05:09;;;;;;;1.40;1.20;;;5.00;99.90;;;;;;5011768;28;20180;-74
2021/12/02 09:10:11;;;;;;;3.03;1.40;;;4.80;99.90;;;;;;5000903;28;20205;-73
2021/12/02 09:12:40;;;;;;;3.43;1.90;;;4.80;99.90;;;;;;5011299;28;20176;-74
2021/12/02 09:15:09;;;;;;;2.07;1.20;;;4.80;99.90;;;;;;5005823;28;20189;-74
2021/12/02 09:17:38;;;;;;;2.20;1.70;;;4.80;99.90;;;;;;5004666;28;20190;-74
2021/12/02 09:20:06;;;;;;;4.97;1.17;;;4.90;99.90;;;;;;4996979;28;20811;-74
2021/12/02 09:22:32;;;;;;;2.53;1.13;;;5.00;99.90;;;;;;4996666;28;20186;-76
2021/12/02 09:24:57;;;;;;;2.33;1.07;;;5.00;99.90;;;;;;4997530;28;20615;-73
2021/12/02 09:27:23;;;;;;;2.50;1.30;;;5.10;99.90;;;;;;4996250;28;20202;-73
2021/12/02 09:29:49;;;;;;;1.67;0.87;;;5.10;99.90;;;;;;4996013;28;20196;-75
2021/12/02 09:32:14;;;;;;;4.43;1.07;;;5.20;99.90;;;;;;4996371;28;20179;-75
2021/12/02 09:34:40;;;;;;;1.33;0.97;;;5.20;99.90;;;;;;4996339;28;20271;-74
2021/12/02 09:37:09;;;;;;;3.30;1.20;;;5.20;99.90;;;;;;4996522;28;20193;-74
2021/12/02 09:39:35;;;;;;;3.53;1.27;;;5.20;99.90;;;;;;4996860;28;20211;-73
2021/12/02 09:42:05;;;;;;;6.83;1.17;;;5.20;99.90;;;;;;5011556;28;20656;-75
2021/12/02 09:44:34;;;;;;;1.90;0.70;;;5.10;99.90;;;;;;5006272;28;20549;-74
2021/12/02 09:47:11;;;;;;;2.03;1.03;;;5.10;99.90;;;;;;4997807;28;20244;-74
2021/12/02 09:56:26;;;;;;;1.73;0.83;;;5.00;99.90;;;;;;4994033;28;20205;-74
2021/12/02 09:58:55;;;;;;;2.23;0.90;;;4.50;99.90;;;;;;5016777;28;20761;-74
2021/12/02 10:01:26;;;;;;;2.73;1.27;;;5.70;99.90;;;;;;5015577;28;20177;-76
2021/12/02 10:03:59;;;;;;;3.13;1.63;;;5.00;99.90;;;;;;5016494;28;20180;-78
2021/12/02 10:06:30;;;;;;;3.37;1.07;;;5.10;99.90;;;;;;5015540;28;20229;-75
2021/12/02 10:09:11;;;;;;;1.83;1.07;;;5.30;99.90;;;;;;5015514;28;20297;-75
2021/12/02 10:12:02;;;;;;;2.53;1.13;;;5.10;99.90;;;;;;5014702;28;20578;-76
2021/12/02 10:17:33;;;;;;;2.77;1.30;;;5.10;99.90;;;;;;5017765;28;20196;-75
2021/12/02 10:20:22;;;;;;;;;;;;;;;;;;;;;
2021/12/02 10:23:02;;;;;;;2.30;1.37;;;5.20;99.90;;;;;;5016056;28;20185;-77
2021/12/02 10:25:35;;;;;;;2.27;1.13;;;5.30;99.90;;;;;;5015713;28;20181;-76
2021/12/02 10:28:19;;;;;;;3.77;0.90;;;5.30;99.90;;;;;;5015099;28;20207;-79
2021/12/02 10:30:51;;;;;;;4.13;1.03;;;5.20;99.90;;;;;;5016753;28;20188;-77
2021/12/02 10:33:28;;;;;;;2.27;0.97;;;5.30;99.90;;;;;;5011965;28;20183;-75
2021/12/02 10:35:57;;;;;;;2.57;0.93;;;5.40;99.90;;;;;;5030151;28;20185;-74
2021/12/02 10:38:32;;;;;;;3.93;1.00;;;5.40;99.90;;;;;;5008952;28;20228;-78
2021/12/02 10:41:00;;;;;;;2.40;1.40;;;5.50;99.90;;;;;;5032487;28;20225;-79
2021/12/02 10:43:26;;;;;;;3.90;1.30;;;5.60;99.90;;;;;;5015044;28;20177;-77
2021/12/02 10:45:52;;;;;;;2.07;0.90;;;5.60;99.90;;;;;;5012774;28;20178;-76
2021/12/02 10:48:19;;;;;;;2.90;0.90;;;5.60;99.90;;;;;;5014438;28;20213;-78
2021/12/02 10:50:45;;;;;;;5.07;1.20;;;5.60;99.90;;;;;;5012523;28;20173;-74
2021/12/02 10:53:10;;;;;;;2.63;1.03;;;5.60;99.90;;;;;;5014542;28;20175;-77
2021/12/02 10:55:36;;;;;;;3.13;1.00;;;5.60;99.90;;;;;;5014870;28;20664;-77
2021/12/02 10:58:02;;;;;;;3.17;1.13;;;5.60;99.90;;;;;;5010440;28;20196;-79
2021/12/02 11:00:31;;;;;;;3.43;1.50;;;5.70;99.90;;;;;;5014310;28;20182;-73
2021/12/02 11:03:06;;;;;;;1.73;1.00;;;5.80;99.90;;;;;;5013357;28;20186;-80
2021/12/02 11:05:33;;;;;;;2.53;0.90;;;5.70;99.90;;;;;;5011822;28;20546;-79
2021/12/02 11:08:01;;;;;;;3.07;1.00;;;5.70;99.90;;;;;;5010293;28;20216;-77
2021/12/02 11:10:34;;;;;;;2.40;1.10;;;5.70;99.90;;;;;;5009891;28;20179;-77
2021/12/02 11:13:16;;;;;;;1.90;0.70;;;5.60;99.90;;;;;;5024414;28;20219;-74
2021/12/02 11:15:42;;;;;;;3.70;1.00;;;5.60;99.90;;;;;;5014069;28;20196;-77
2021/12/02 11:18:14;;;;;;;2.27;0.90;;;5.60;99.90;;;;;;5009654;28;20788;-77
2021/12/02 11:20:45;;;;;;;4.00;0.80;;;5.50;99.90;;;;;;5012303;28;20178;-77
2021/12/02 11:23:30;;;;;;;2.23;1.03;;;5.50;99.90;;;;;;5007426;28;20247;-78
2021/12/02 11:26:10;;;;;;;1.43;0.80;;;5.60;99.90;;;;;;5012529;28;20637;-77
2021/12/02 11:28:39;;;;;;;3.90;0.80;;;5.60;99.90;;;;;;5027423;28;20622;-77
2021/12/02 11:31:18;;;;;;;1.40;0.70;;;5.60;99.90;;;;;;5011247;28;20206;-77
2021/12/02 11:33:46;;;;;;;1.93;0.87;;;5.60;99.90;;;;;;5008701;28;20241;-79
2021/12/02 11:36:25;;;;;;;2.53;1.37;;;5.70;99.90;;;;;;5024643;28;20207;-77
2021/12/02 11:38:57;;;;;;;1.90;1.13;;;5.60;99.90;;;;;;5009100;28;20207;-76
2021/12/02 11:41:23;;;;;;;3.30;1.10;;;5.60;99.90;;;;;;4999953;28;20177;-77
2021/12/02 11:43:50;;;;;;;3.30;1.10;;;5.60;99.90;;;;;;5008846;28;20545;-77
2021/12/02 11:46:17;;;;;;;5.57;1.20;;;5.60;99.90;;;;;;5008478;28;20186;-77
2021/12/02 11:48:43;;;;;;;2.50;1.10;;;5.70;99.90;;;;;;5010722;28;20208;-77
2021/12/02 11:51:12;;;;;;;1.13;0.90;;;5.70;99.90;;;;;;5007369;28;20185;-77
2021/12/02 11:53:38;;;;;;;1.87;1.00;;;5.70;99.90;;;;;;5005433;28;20196;-77
2021/12/02 11:56:08;;;;;;;2.17;0.80;;;5.70;99.90;;;;;;5009421;28;20184;-78
2021/12/02 11:58:34;;;;;;;1.53;1.10;;;5.70;99.90;;;;;;5010803;28;20228;-79
2021/12/02 12:01:00;;;;;;;4.30;1.37;;;5.70;99.90;;;;;;5010493;28;20181;-77
2021/12/02 12:03:42;;;;;;;1.80;0.97;;;5.60;99.90;;;;;;5006797;28;20261;-79
2021/12/02 12:06:21;;;;;;;1.80;1.20;;;5.70;99.90;;;;;;5011801;28;20189;-77
2021/12/02 12:08:51;;;;;;;1.97;0.93;;;5.70;99.90;;;;;;5005357;28;20213;-76
2021/12/02 12:11:26;;;;;;;0.90;0.70;;;5.70;99.90;;;;;;5024610;28;20551;-77
2021/12/02 12:13:55;;;;;;;2.43;0.93;;;5.60;99.90;;;;;;5004176;28;20317;-76
2021/12/02 12:16:31;;;;;;;1.90;0.80;;;5.70;99.90;;;;;;5025669;28;20234;-77
2021/12/02 12:19:12;;;;;;;2.40;1.17;;;5.70;99.90;;;;;;5007414;28;20201;-77
2021/12/02 12:21:40;;;;;;;2.43;1.17;;;5.60;99.90;;;;;;5005358;28;20202;-76
2021/12/02 12:24:08;;;;;;;3.07;1.10;;;5.60;99.90;;;;;;5002321;28;20189;-76
2021/12/02 12:26:40;;;;;;;1.67;1.10;;;5.60;99.90;;;;;;5000969;28;20184;-77
2021/12/02 12:29:06;;;;;;;3.83;1.90;;;5.70;99.90;;;;;;5008819;28;20201;-76
2021/12/02 12:31:46;;;;;;;1.60;1.23;;;5.70;99.90;;;;;;5010987;28;20652;-76
2021/12/02 12:37:22;;;;;;;2.80;1.10;;;5.80;99.90;;;;;;4985002;28;20182;-76
2021/12/02 12:40:11;;;;;;;3.80;1.30;;;5.80;99.90;;;;;;5006941;28;20200;-76
2021/12/02 12:42:43;;;;;;;8.07;1.60;;;5.80;99.90;;;;;;5011068;28;20189;-76
2021/12/02 12:45:11;;;;;;;4.30;2.10;;;6.00;99.90;;;;;;5007019;28;20176;-76
2021/12/02 12:47:53;;;;;;;3.50;1.10;;;5.90;99.90;;;;;;5008167;28;20199;-76
2021/12/02 12:50:21;;;;;;;2.77;0.90;;;5.90;99.90;;;;;;5007650;28;20181;-75
2021/12/02 12:53:16;;;;;;;2.00;1.00;;;5.90;99.90;;;;;;5005135;28;20181;-76
2021/12/02 12:55:55;;;;;;;3.40;1.30;;;5.90;99.90;;;;;;5000656;28;20220;-77
2021/12/02 12:58:29;;;;;;;4.53;1.30;;;5.90;99.90;;;;;;5000816;28;20281;-77
2021/12/02 13:01:03;;;;;;;2.73;0.90;;;5.90;99.90;;;;;;5003358;28;20269;-78
2021/12/02 13:06:27;;;;;;;2.00;0.83;;;6.00;99.90;;;;;;5001676;28;20209;-77
2021/12/02 13:09:01;;;;;;;2.10;0.80;;;5.90;99.90;;;;;;5001915;28;20220;-77
2021/12/02 13:11:32;;;;;;;2.20;0.50;;;5.90;99.90;;;;;;5008994;28;20177;-76
2021/12/02 13:14:00;;;;;;;1.27;0.30;;;5.50;99.90;;;;;;5008178;28;20181;-77
2021/12/02 13:16:26;;;;;;;0.60;0.37;;;5.00;99.90;;;;;;5008096;28;20206;-77
2021/12/02 13:18:54;;;;;;;0.50;0.40;;;4.80;99.90;;;;;;5007554;28;20266;-76
2021/12/02 13:21:31;;;;;;;0.70;0.50;;;4.60;99.90;;;;;;5009316;28;20239;-77
2021/12/02 13:24:31;;;;;;;0.30;0.30;;;4.40;99.90;;;;;;5007165;28;20237;-77
2021/12/02 13:27:06;;;;;;;0.90;0.20;;;4.10;99.90;;;;;;5007608;28;20236;-76
2021/12/02 13:29:37;;;;;;;0.37;0.27;;;3.90;99.90;;;;;;5010984;28;20297;-77
2021/12/02 13:32:09;;;;;;;0.20;0.20;;;3.80;99.90;;;;;;5009179;28;20243;-78
2021/12/02 13:34:35;;;;;;;0.43;0.40;;;3.80;99.90;;;;;;5013793;28;20193;-77
2021/12/02 13:37:09;;;;;;;1.20;0.70;;;3.80;99.90;;;;;;5007977;28;20191;-77
2021/12/02 13:39:40;;;;;;;1.13;0.83;;;3.80;99.90;;;;;;5004605;28;20204;-77
2021/12/02 13:42:08;;;;;;;2.00;0.50;;;3.80;99.90;;;;;;5012488;28;20179;-76
2021/12/02 13:44:43;;;;;;;1.70;0.40;;;3.90;99.90;;;;;;5013975;28;20798;-77
2021/12/02 13:47:29;;;;;;;0.40;0.40;;;3.90;99.90;;;;;;5004876;28;20543;-78